Аэропорт: Уфа. Уфа

ICAO: UWUU

METAR:
2018/07/16 19:30
UWUU 161930Z 13002MPS CAVOK 20/16 Q1012 R14R/0///60 NOSIG RMK QFE749/0999
METAR:
2018/07/16 18:21
TAF UWUU 161700Z 1618/1718 13003G08MPS 9999 SCT040 
      TEMPO 1621/1703 VRB01MPS 3100 BR 
      TEMPO 1709/1718 3100 -SHRA BKN011CB